sensor_id;sensor_type;location;lat;lon;timestamp;temperature;humidity
38237;DHT22;50101;49.438;11.098;2022-11-21T00:00:51;18.20;65.40
38237;DHT22;50101;49.438;11.098;2022-11-21T00:03:18;18.20;65.50
38237;DHT22;50101;49.438;11.098;2022-11-21T00:05:46;18.20;65.40
38237;DHT22;50101;49.438;11.098;2022-11-21T00:08:19;18.20;65.50
38237;DHT22;50101;49.438;11.098;2022-11-21T00:10:46;18.20;65.50
38237;DHT22;50101;49.438;11.098;2022-11-21T00:13:18;18.20;65.50
38237;DHT22;50101;49.438;11.098;2022-11-21T00:15:46;18.20;65.50
38237;DHT22;50101;49.438;11.098;2022-11-21T00:18:13;18.20;65.50
38237;DHT22;50101;49.438;11.098;2022-11-21T00:20:42;18.20;65.50
38237;DHT22;50101;49.438;11.098;2022-11-21T00:23:09;18.20;65.50
38237;DHT22;50101;49.438;11.098;2022-11-21T00:25:36;18.20;65.50
38237;DHT22;50101;49.438;11.098;2022-11-21T00:28:04;18.20;65.40
38237;DHT22;50101;49.438;11.098;2022-11-21T00:30:31;18.20;65.40
38237;DHT22;50101;49.438;11.098;2022-11-21T00:32:58;18.20;65.40
38237;DHT22;50101;49.438;11.098;2022-11-21T00:35:25;18.20;65.40
38237;DHT22;50101;49.438;11.098;2022-11-21T00:37:52;18.20;65.40
38237;DHT22;50101;49.438;11.098;2022-11-21T00:40:19;18.10;65.30
38237;DHT22;50101;49.438;11.098;2022-11-21T00:42:45;18.10;64.70
38237;DHT22;50101;49.438;11.098;2022-11-21T00:45:12;18.10;65.30
38237;DHT22;50101;49.438;11.098;2022-11-21T00:47:39;18.10;65.40
38237;DHT22;50101;49.438;11.098;2022-11-21T00:50:06;18.10;65.40
38237;DHT22;50101;49.438;11.098;2022-11-21T00:52:32;18.10;65.30
38237;DHT22;50101;49.438;11.098;2022-11-21T00:54:59;18.10;65.30
38237;DHT22;50101;49.438;11.098;2022-11-21T00:57:26;18.10;65.30
38237;DHT22;50101;49.438;11.098;2022-11-21T00:59:52;18.10;65.30
38237;DHT22;50101;49.438;11.098;2022-11-21T01:02:19;18.10;65.30
38237;DHT22;50101;49.438;11.098;2022-11-21T01:04:46;18.10;65.40
38237;DHT22;50101;49.438;11.098;2022-11-21T01:07:13;18.10;65.40
38237;DHT22;50101;49.438;11.098;2022-11-21T01:09:40;18.10;66.10
38237;DHT22;50101;49.438;11.098;2022-11-21T01:12:07;18.10;65.30
38237;DHT22;50101;49.438;11.098;2022-11-21T01:14:34;18.10;65.30
38237;DHT22;50101;49.438;11.098;2022-11-21T01:17:00;18.10;65.20
38237;DHT22;50101;49.438;11.098;2022-11-21T01:19:27;18.10;65.20
38237;DHT22;50101;49.438;11.098;2022-11-21T01:21:53;18.10;65.30
38237;DHT22;50101;49.438;11.098;2022-11-21T01:24:20;18.10;65.30
38237;DHT22;50101;49.438;11.098;2022-11-21T01:26:47;18.10;65.30
38237;DHT22;50101;49.438;11.098;2022-11-21T01:29:16;18.00;65.20
38237;DHT22;50101;49.438;11.098;2022-11-21T01:31:42;18.00;65.10
38237;DHT22;50101;49.438;11.098;2022-11-21T01:34:09;18.10;65.20
38237;DHT22;50101;49.438;11.098;2022-11-21T01:36:36;18.10;65.20
38237;DHT22;50101;49.438;11.098;2022-11-21T01:39:04;18.00;64.50
38237;DHT22;50101;49.438;11.098;2022-11-21T01:41:42;18.00;65.10
38237;DHT22;50101;49.438;11.098;2022-11-21T01:44:21;18.00;65.10
38237;DHT22;50101;49.438;11.098;2022-11-21T01:46:49;18.00;65.10
38237;DHT22;50101;49.438;11.098;2022-11-21T01:49:29;18.00;65.10
38237;DHT22;50101;49.438;11.098;2022-11-21T01:52:01;18.00;65.10
38237;DHT22;50101;49.438;11.098;2022-11-21T01:54:39;18.00;65.10
38237;DHT22;50101;49.438;11.098;2022-11-21T01:57:31;18.00;65.10
38237;DHT22;50101;49.438;11.098;2022-11-21T02:00:07;18.00;65.00
38237;DHT22;50101;49.438;11.098;2022-11-21T02:02:36;18.00;65.00
38237;DHT22;50101;49.438;11.098;2022-11-21T02:05:08;18.00;65.00
38237;DHT22;50101;49.438;11.098;2022-11-21T02:07:40;18.00;65.00
38237;DHT22;50101;49.438;11.098;2022-11-21T02:10:08;18.00;65.00
38237;DHT22;50101;49.438;11.098;2022-11-21T02:12:52;18.00;65.00
38237;DHT22;50101;49.438;11.098;2022-11-21T02:15:24;18.00;65.00
38237;DHT22;50101;49.438;11.098;2022-11-21T02:17:52;18.00;64.90
38237;DHT22;50101;49.438;11.098;2022-11-21T02:20:21;18.00;64.40
38237;DHT22;50101;49.438;11.098;2022-11-21T02:23:12;18.00;65.00
38237;DHT22;50101;49.438;11.098;2022-11-21T02:25:40;18.00;64.90
38237;DHT22;50101;49.438;11.098;2022-11-21T02:28:11;18.00;64.90
38237;DHT22;50101;49.438;11.098;2022-11-21T02:30:41;18.00;65.00
38237;DHT22;50101;49.438;11.098;2022-11-21T02:33:09;18.00;65.00
38237;DHT22;50101;49.438;11.098;2022-11-21T02:35:36;18.00;65.00
38237;DHT22;50101;49.438;11.098;2022-11-21T02:38:06;17.90;64.90
38237;DHT22;50101;49.438;11.098;2022-11-21T02:40:40;17.90;64.90
38237;DHT22;50101;49.438;11.098;2022-11-21T02:43:26;17.90;64.80
38237;DHT22;50101;49.438;11.098;2022-11-21T02:45:53;17.90;64.80
38237;DHT22;50101;49.438;11.098;2022-11-21T02:48:20;17.90;64.80
38237;DHT22;50101;49.438;11.098;2022-11-21T02:50:47;17.90;64.80
38237;DHT22;50101;49.438;11.098;2022-11-21T02:53:16;17.90;64.70
38237;DHT22;50101;49.438;11.098;2022-11-21T02:55:43;17.90;64.70
38237;DHT22;50101;49.438;11.098;2022-11-21T02:58:10;18.00;64.80
38237;DHT22;50101;49.438;11.098;2022-11-21T03:00:38;17.90;64.70
38237;DHT22;50101;49.438;11.098;2022-11-21T03:03:06;17.90;64.70
38237;DHT22;50101;49.438;11.098;2022-11-21T03:05:32;17.90;64.70
38237;DHT22;50101;49.438;11.098;2022-11-21T03:07:59;17.90;64.70
38237;DHT22;50101;49.438;11.098;2022-11-21T03:10:26;17.90;64.80
38237;DHT22;50101;49.438;11.098;2022-11-21T03:12:53;17.90;64.80
38237;DHT22;50101;49.438;11.098;2022-11-21T03:15:27;17.90;64.70
38237;DHT22;50101;49.438;11.098;2022-11-21T03:17:55;17.90;64.70
38237;DHT22;50101;49.438;11.098;2022-11-21T03:20:22;17.90;64.70
38237;DHT22;50101;49.438;11.098;2022-11-21T03:22:49;17.90;64.70
38237;DHT22;50101;49.438;11.098;2022-11-21T03:25:15;17.90;64.70
38237;DHT22;50101;49.438;11.098;2022-11-21T03:27:43;17.90;64.70
38237;DHT22;50101;49.438;11.098;2022-11-21T03:30:10;17.90;64.60
38237;DHT22;50101;49.438;11.098;2022-11-21T03:32:37;17.90;64.60
38237;DHT22;50101;49.438;11.098;2022-11-21T03:35:04;17.90;64.60
38237;DHT22;50101;49.438;11.098;2022-11-21T03:37:31;17.90;64.60
38237;DHT22;50101;49.438;11.098;2022-11-21T03:39:57;17.90;64.50
38237;DHT22;50101;49.438;11.098;2022-11-21T03:42:24;17.90;64.50
38237;DHT22;50101;49.438;11.098;2022-11-21T03:44:50;17.90;64.50
38237;DHT22;50101;49.438;11.098;2022-11-21T03:47:17;17.90;64.50
38237;DHT22;50101;49.438;11.098;2022-11-21T03:49:44;17.90;64.50
38237;DHT22;50101;49.438;11.098;2022-11-21T03:52:10;17.90;64.50
38237;DHT22;50101;49.438;11.098;2022-11-21T03:54:37;17.90;64.50
38237;DHT22;50101;49.438;11.098;2022-11-21T03:57:03;17.90;64.60
38237;DHT22;50101;49.438;11.098;2022-11-21T03:59:30;17.90;64.50
38237;DHT22;50101;49.438;11.098;2022-11-21T04:01:57;17.80;64.40
38237;DHT22;50101;49.438;11.098;2022-11-21T04:04:23;17.90;64.50
38237;DHT22;50101;49.438;11.098;2022-11-21T04:06:50;17.90;64.50
38237;DHT22;50101;49.438;11.098;2022-11-21T04:09:17;17.80;64.40
38237;DHT22;50101;49.438;11.098;2022-11-21T04:11:43;17.90;64.50
38237;DHT22;50101;49.438;11.098;2022-11-21T04:14:10;17.80;64.40
38237;DHT22;50101;49.438;11.098;2022-11-21T04:16:37;17.80;64.30
38237;DHT22;50101;49.438;11.098;2022-11-21T04:19:03;17.90;64.40
38237;DHT22;50101;49.438;11.098;2022-11-21T04:21:30;17.80;64.30
38237;DHT22;50101;49.438;11.098;2022-11-21T04:23:56;17.90;64.30
38237;DHT22;50101;49.438;11.098;2022-11-21T04:26:23;17.80;64.20
38237;DHT22;50101;49.438;11.098;2022-11-21T04:28:50;17.80;65.00
38237;DHT22;50101;49.438;11.098;2022-11-21T04:31:16;17.80;64.20
38237;DHT22;50101;49.438;11.098;2022-11-21T04:33:43;17.80;64.20
38237;DHT22;50101;49.438;11.098;2022-11-21T04:36:09;17.80;64.30
38237;DHT22;50101;49.438;11.098;2022-11-21T04:38:36;17.80;64.20
38237;DHT22;50101;49.438;11.098;2022-11-21T04:41:03;17.80;64.30
38237;DHT22;50101;49.438;11.098;2022-11-21T04:43:30;17.80;64.20
38237;DHT22;50101;49.438;11.098;2022-11-21T04:45:57;17.80;64.20
38237;DHT22;50101;49.438;11.098;2022-11-21T04:48:23;17.80;64.20
38237;DHT22;50101;49.438;11.098;2022-11-21T04:50:50;17.80;64.20
38237;DHT22;50101;49.438;11.098;2022-11-21T04:53:16;17.80;64.20
38237;DHT22;50101;49.438;11.098;2022-11-21T04:55:43;17.80;64.20
38237;DHT22;50101;49.438;11.098;2022-11-21T04:58:10;17.80;64.20
38237;DHT22;50101;49.438;11.098;2022-11-21T05:00:36;17.80;64.20
38237;DHT22;50101;49.438;11.098;2022-11-21T05:03:04;17.80;64.10
38237;DHT22;50101;49.438;11.098;2022-11-21T05:05:31;17.80;64.00
38237;DHT22;50101;49.438;11.098;2022-11-21T05:07:58;17.80;63.90
38237;DHT22;50101;49.438;11.098;2022-11-21T05:10:24;17.80;64.00
38237;DHT22;50101;49.438;11.098;2022-11-21T05:12:58;17.80;64.00
38237;DHT22;50101;49.438;11.098;2022-11-21T05:15:44;17.80;64.10
38237;DHT22;50101;49.438;11.098;2022-11-21T05:18:11;17.80;64.10
38237;DHT22;50101;49.438;11.098;2022-11-21T05:20:37;17.80;64.10
38237;DHT22;50101;49.438;11.098;2022-11-21T05:23:04;17.80;64.20
38237;DHT22;50101;49.438;11.098;2022-11-21T05:25:31;17.80;64.20
38237;DHT22;50101;49.438;11.098;2022-11-21T05:27:57;17.80;64.40
38237;DHT22;50101;49.438;11.098;2022-11-21T05:30:24;17.80;64.50
38237;DHT22;50101;49.438;11.098;2022-11-21T05:32:51;17.80;64.50
38237;DHT22;50101;49.438;11.098;2022-11-21T05:35:17;17.80;64.50
38237;DHT22;50101;49.438;11.098;2022-11-21T05:37:44;17.80;64.30
38237;DHT22;50101;49.438;11.098;2022-11-21T05:40:11;17.80;64.40
38237;DHT22;50101;49.438;11.098;2022-11-21T05:42:39;17.80;64.30
38237;DHT22;50101;49.438;11.098;2022-11-21T05:45:24;17.80;64.30
38237;DHT22;50101;49.438;11.098;2022-11-21T05:47:51;17.80;64.20
38237;DHT22;50101;49.438;11.098;2022-11-21T05:50:18;17.80;64.20
38237;DHT22;50101;49.438;11.098;2022-11-21T05:52:44;17.80;64.30
38237;DHT22;50101;49.438;11.098;2022-11-21T05:55:11;17.80;64.40
38237;DHT22;50101;49.438;11.098;2022-11-21T05:57:38;17.80;64.50
38237;DHT22;50101;49.438;11.098;2022-11-21T06:00:05;17.80;64.40
38237;DHT22;50101;49.438;11.098;2022-11-21T06:02:32;17.80;64.60
38237;DHT22;50101;49.438;11.098;2022-11-21T06:05:17;17.80;64.40
38237;DHT22;50101;49.438;11.098;2022-11-21T06:07:44;17.80;64.40
38237;DHT22;50101;49.438;11.098;2022-11-21T06:10:10;17.80;64.40
38237;DHT22;50101;49.438;11.098;2022-11-21T06:12:37;17.80;64.40
38237;DHT22;50101;49.438;11.098;2022-11-21T06:15:04;17.80;64.40
38237;DHT22;50101;49.438;11.098;2022-11-21T06:17:31;17.80;64.50
38237;DHT22;50101;49.438;11.098;2022-11-21T06:19:58;17.80;64.60
38237;DHT22;50101;49.438;11.098;2022-11-21T06:22:24;17.80;64.70
38237;DHT22;50101;49.438;11.098;2022-11-21T06:24:51;17.80;64.60
38237;DHT22;50101;49.438;11.098;2022-11-21T06:27:18;17.80;64.70
38237;DHT22;50101;49.438;11.098;2022-11-21T06:29:44;17.90;64.10
38237;DHT22;50101;49.438;11.098;2022-11-21T06:32:11;17.80;64.70
38237;DHT22;50101;49.438;11.098;2022-11-21T06:34:38;17.80;64.70
38237;DHT22;50101;49.438;11.098;2022-11-21T06:37:05;17.90;64.70
38237;DHT22;50101;49.438;11.098;2022-11-21T06:39:31;18.00;64.90
38237;DHT22;50101;49.438;11.098;2022-11-21T06:41:58;18.00;64.60
38237;DHT22;50101;49.438;11.098;2022-11-21T06:44:26;18.00;64.60
38237;DHT22;50101;49.438;11.098;2022-11-21T06:46:53;18.00;64.90
38237;DHT22;50101;49.438;11.098;2022-11-21T06:49:20;18.00;64.60
38237;DHT22;50101;49.438;11.098;2022-11-21T06:51:47;18.00;65.30
38237;DHT22;50101;49.438;11.098;2022-11-21T06:54:14;18.00;65.30
38237;DHT22;50101;49.438;11.098;2022-11-21T06:56:42;18.10;65.40
38237;DHT22;50101;49.438;11.098;2022-11-21T06:59:09;18.10;65.10
38237;DHT22;50101;49.438;11.098;2022-11-21T07:01:36;18.10;65.70
38237;DHT22;50101;49.438;11.098;2022-11-21T07:04:03;18.10;65.90
38237;DHT22;50101;49.438;11.098;2022-11-21T07:06:30;18.10;65.80
38237;DHT22;50101;49.438;11.098;2022-11-21T07:08:56;18.10;65.80
38237;DHT22;50101;49.438;11.098;2022-11-21T07:11:43;18.10;65.90
38237;DHT22;50101;49.438;11.098;2022-11-21T07:14:10;18.20;65.70
38237;DHT22;50101;49.438;11.098;2022-11-21T07:16:37;18.20;66.00
38237;DHT22;50101;49.438;11.098;2022-11-21T07:19:03;18.20;65.90
38237;DHT22;50101;49.438;11.098;2022-11-21T07:21:31;18.30;65.80
38237;DHT22;50101;49.438;11.098;2022-11-21T07:23:57;18.20;65.30
38237;DHT22;50101;49.438;11.098;2022-11-21T07:26:24;18.20;65.40
38237;DHT22;50101;49.438;11.098;2022-11-21T07:28:51;18.10;65.30
38237;DHT22;50101;49.438;11.098;2022-11-21T07:31:19;18.10;64.60
38237;DHT22;50101;49.438;11.098;2022-11-21T07:33:46;18.10;65.30
38237;DHT22;50101;49.438;11.098;2022-11-21T07:36:13;18.10;65.30
38237;DHT22;50101;49.438;11.098;2022-11-21T07:38:40;18.10;65.30
38237;DHT22;50101;49.438;11.098;2022-11-21T07:41:08;18.10;65.20
38237;DHT22;50101;49.438;11.098;2022-11-21T07:43:34;18.10;65.10
38237;DHT22;50101;49.438;11.098;2022-11-21T07:46:01;18.20;65.80
38237;DHT22;50101;49.438;11.098;2022-11-21T07:48:28;18.10;65.80
38237;DHT22;50101;49.438;11.098;2022-11-21T07:50:54;18.10;65.90
38237;DHT22;50101;49.438;11.098;2022-11-21T07:53:21;18.10;66.10
38237;DHT22;50101;49.438;11.098;2022-11-21T07:55:48;18.20;66.30
38237;DHT22;50101;49.438;11.098;2022-11-21T07:58:15;18.20;66.40
38237;DHT22;50101;49.438;11.098;2022-11-21T08:00:43;18.20;66.10
38237;DHT22;50101;49.438;11.098;2022-11-21T08:03:11;18.20;66.20
38237;DHT22;50101;49.438;11.098;2022-11-21T08:05:42;18.20;66.20
38237;DHT22;50101;49.438;11.098;2022-11-21T08:08:10;18.20;66.10
38237;DHT22;50101;49.438;11.098;2022-11-21T08:10:39;18.20;66.00
38237;DHT22;50101;49.438;11.098;2022-11-21T08:13:06;18.30;66.10
38237;DHT22;50101;49.438;11.098;2022-11-21T08:15:33;18.20;66.30
38237;DHT22;50101;49.438;11.098;2022-11-21T08:18:13;18.30;66.20
38237;DHT22;50101;49.438;11.098;2022-11-21T08:20:41;18.30;66.20
38237;DHT22;50101;49.438;11.098;2022-11-21T08:23:08;18.30;66.30
38237;DHT22;50101;49.438;11.098;2022-11-21T08:25:37;18.30;66.30
38237;DHT22;50101;49.438;11.098;2022-11-21T08:28:05;18.30;66.30
38237;DHT22;50101;49.438;11.098;2022-11-21T08:30:33;18.30;66.20
38237;DHT22;50101;49.438;11.098;2022-11-21T08:33:00;18.30;66.20
38237;DHT22;50101;49.438;11.098;2022-11-21T08:35:28;18.30;66.10
38237;DHT22;50101;49.438;11.098;2022-11-21T08:37:56;18.30;66.20
38237;DHT22;50101;49.438;11.098;2022-11-21T08:40:28;18.30;66.10
38237;DHT22;50101;49.438;11.098;2022-11-21T08:42:56;18.30;65.70
38237;DHT22;50101;49.438;11.098;2022-11-21T08:45:23;18.30;66.00
38237;DHT22;50101;49.438;11.098;2022-11-21T08:47:51;18.40;65.50
38237;DHT22;50101;49.438;11.098;2022-11-21T08:50:19;18.40;65.10
38237;DHT22;50101;49.438;11.098;2022-11-21T08:52:46;18.40;65.10
38237;DHT22;50101;49.438;11.098;2022-11-21T08:55:12;18.30;65.00
38237;DHT22;50101;49.438;11.098;2022-11-21T08:57:40;18.40;65.20
38237;DHT22;50101;49.438;11.098;2022-11-21T09:00:09;18.40;65.20
38237;DHT22;50101;49.438;11.098;2022-11-21T09:02:37;18.40;65.00
38237;DHT22;50101;49.438;11.098;2022-11-21T09:05:05;18.40;65.20
38237;DHT22;50101;49.438;11.098;2022-11-21T09:07:31;18.40;65.80
38237;DHT22;50101;49.438;11.098;2022-11-21T09:09:58;18.40;65.70
38237;DHT22;50101;49.438;11.098;2022-11-21T09:12:25;18.40;66.40
38237;DHT22;50101;49.438;11.098;2022-11-21T09:14:51;18.40;66.30
38237;DHT22;50101;49.438;11.098;2022-11-21T09:17:37;18.40;65.80
38237;DHT22;50101;49.438;11.098;2022-11-21T09:20:22;18.40;65.70
38237;DHT22;50101;49.438;11.098;2022-11-21T09:22:49;18.40;65.90
38237;DHT22;50101;49.438;11.098;2022-11-21T09:25:15;18.40;65.20
38237;DHT22;50101;49.438;11.098;2022-11-21T09:27:42;18.40;65.60
38237;DHT22;50101;49.438;11.098;2022-11-21T09:30:09;18.40;65.10
38237;DHT22;50101;49.438;11.098;2022-11-21T09:32:36;18.50;65.50
38237;DHT22;50101;49.438;11.098;2022-11-21T09:35:02;18.40;65.10
38237;DHT22;50101;49.438;11.098;2022-11-21T09:37:35;18.50;65.10
38237;DHT22;50101;49.438;11.098;2022-11-21T09:40:03;18.50;65.30
38237;DHT22;50101;49.438;11.098;2022-11-21T09:46:12;18.50;65.40
38237;DHT22;50101;49.438;11.098;2022-11-21T09:48:47;18.50;65.60
38237;DHT22;50101;49.438;11.098;2022-11-21T09:51:18;18.50;65.70
38237;DHT22;50101;49.438;11.098;2022-11-21T09:53:58;18.50;65.70
38237;DHT22;50101;49.438;11.098;2022-11-21T09:56:30;18.50;65.80
38237;DHT22;50101;49.438;11.098;2022-11-21T10:01:37;18.50;65.30
38237;DHT22;50101;49.438;11.098;2022-11-21T10:04:04;18.50;65.30
38237;DHT22;50101;49.438;11.098;2022-11-21T10:06:35;18.60;65.10
38237;DHT22;50101;49.438;11.098;2022-11-21T10:09:23;18.50;64.60
38237;DHT22;50101;49.438;11.098;2022-11-21T10:23:28;18.50;65.30
38237;DHT22;50101;49.438;11.098;2022-11-21T10:26:21;18.50;65.70
38237;DHT22;50101;49.438;11.098;2022-11-21T10:29:04;18.50;64.70
38237;DHT22;50101;49.438;11.098;2022-11-21T10:31:38;18.50;65.30
38237;DHT22;50101;49.438;11.098;2022-11-21T10:34:17;18.50;65.60
38237;DHT22;50101;49.438;11.098;2022-11-21T10:36:48;18.60;65.30
38237;DHT22;50101;49.438;11.098;2022-11-21T10:42:04;18.60;65.70
38237;DHT22;50101;49.438;11.098;2022-11-21T10:44:37;18.60;65.90
38237;DHT22;50101;49.438;11.098;2022-11-21T10:47:27;18.60;65.90
38237;DHT22;50101;49.438;11.098;2022-11-21T10:52:49;18.60;65.90
38237;DHT22;50101;49.438;11.098;2022-11-21T10:55:16;18.60;65.90
38237;DHT22;50101;49.438;11.098;2022-11-21T10:57:50;18.60;65.50
38237;DHT22;50101;49.438;11.098;2022-11-21T11:00:22;18.60;65.90
38237;DHT22;50101;49.438;11.098;2022-11-21T11:03:09;18.60;65.90
38237;DHT22;50101;49.438;11.098;2022-11-21T11:05:54;18.60;65.90
38237;DHT22;50101;49.438;11.098;2022-11-21T11:08:23;18.60;66.00
38237;DHT22;50101;49.438;11.098;2022-11-21T11:11:06;18.60;65.50
38237;DHT22;50101;49.438;11.098;2022-11-21T11:13:48;18.60;65.90
38237;DHT22;50101;49.438;11.098;2022-11-21T11:16:19;18.60;65.70
38237;DHT22;50101;49.438;11.098;2022-11-21T11:19:04;18.60;65.50
38237;DHT22;50101;49.438;11.098;2022-11-21T11:34:38;18.70;65.20
38237;DHT22;50101;49.438;11.098;2022-11-21T11:37:21;18.60;65.20
38237;DHT22;50101;49.438;11.098;2022-11-21T11:49:28;18.70;65.10
38237;DHT22;50101;49.438;11.098;2022-11-21T11:51:59;18.70;65.10
38237;DHT22;50101;49.438;11.098;2022-11-21T11:54:46;18.70;65.40
38237;DHT22;50101;49.438;11.098;2022-11-21T11:57:15;18.70;65.10
38237;DHT22;50101;49.438;11.098;2022-11-21T12:03:00;18.70;65.20
38237;DHT22;50101;49.438;11.098;2022-11-21T12:05:30;18.70;64.80
38237;DHT22;50101;49.438;11.098;2022-11-21T12:08:16;18.80;64.90
38237;DHT22;50101;49.438;11.098;2022-11-21T12:11:30;18.70;64.70
38237;DHT22;50101;49.438;11.098;2022-11-21T12:17:42;18.70;64.60
38237;DHT22;50101;49.438;11.098;2022-11-21T12:23:39;18.70;64.60
38237;DHT22;50101;49.438;11.098;2022-11-21T12:45:27;18.50;64.50
38237;DHT22;50101;49.438;11.098;2022-11-21T12:48:14;18.50;64.50
38237;DHT22;50101;49.438;11.098;2022-11-21T13:00:03;18.50;64.00
38237;DHT22;50101;49.438;11.098;2022-11-21T13:05:36;18.50;63.70
38237;DHT22;50101;49.438;11.098;2022-11-21T13:10:43;18.50;63.00
38237;DHT22;50101;49.438;11.098;2022-11-21T13:13:28;18.50;66.00
38237;DHT22;50101;49.438;11.098;2022-11-21T13:16:32;18.50;66.10
38237;DHT22;50101;49.438;11.098;2022-11-21T13:19:33;18.50;66.10
38237;DHT22;50101;49.438;11.098;2022-11-21T13:22:01;18.60;66.20
38237;DHT22;50101;49.438;11.098;2022-11-21T13:24:53;18.60;66.30
38237;DHT22;50101;49.438;11.098;2022-11-21T13:27:51;18.60;66.20
38237;DHT22;50101;49.438;11.098;2022-11-21T13:30:22;18.60;66.00
38237;DHT22;50101;49.438;11.098;2022-11-21T13:32:53;18.70;66.30
38237;DHT22;50101;49.438;11.098;2022-11-21T13:38:06;18.70;66.30
38237;DHT22;50101;49.438;11.098;2022-11-21T13:40:39;18.70;66.20
38237;DHT22;50101;49.438;11.098;2022-11-21T13:43:27;18.70;66.00
38237;DHT22;50101;49.438;11.098;2022-11-21T13:46:00;18.70;66.10
38237;DHT22;50101;49.438;11.098;2022-11-21T13:51:06;18.70;65.80
38237;DHT22;50101;49.438;11.098;2022-11-21T14:04:48;18.80;66.10
38237;DHT22;50101;49.438;11.098;2022-11-21T14:07:30;18.80;65.80
38237;DHT22;50101;49.438;11.098;2022-11-21T14:10:00;18.80;65.70
38237;DHT22;50101;49.438;11.098;2022-11-21T14:12:37;18.70;65.10
38237;DHT22;50101;49.438;11.098;2022-11-21T14:17:53;18.70;64.80
38237;DHT22;50101;49.438;11.098;2022-11-21T14:20:58;18.70;64.80
38237;DHT22;50101;49.438;11.098;2022-11-21T14:23:29;18.70;65.20
38237;DHT22;50101;49.438;11.098;2022-11-21T14:26:00;18.60;64.40
38237;DHT22;50101;49.438;11.098;2022-11-21T14:28:30;18.70;63.60
38237;DHT22;50101;49.438;11.098;2022-11-21T14:31:08;18.70;64.00
38237;DHT22;50101;49.438;11.098;2022-11-21T14:33:35;18.70;64.20
38237;DHT22;50101;49.438;11.098;2022-11-21T14:36:21;18.80;64.10
38237;DHT22;50101;49.438;11.098;2022-11-21T14:38:54;18.80;64.20
38237;DHT22;50101;49.438;11.098;2022-11-21T14:41:42;18.80;64.30
38237;DHT22;50101;49.438;11.098;2022-11-21T14:46:38;18.80;65.00
38237;DHT22;50101;49.438;11.098;2022-11-21T14:49:25;18.80;65.10
38237;DHT22;50101;49.438;11.098;2022-11-21T14:54:57;18.70;65.60
38237;DHT22;50101;49.438;11.098;2022-11-21T14:57:44;18.70;65.90
38237;DHT22;50101;49.438;11.098;2022-11-21T15:00:15;18.70;66.00
38237;DHT22;50101;49.438;11.098;2022-11-21T15:03:14;18.70;66.10
38237;DHT22;50101;49.438;11.098;2022-11-21T15:05:42;18.70;66.30
38237;DHT22;50101;49.438;11.098;2022-11-21T15:08:34;18.70;66.50
38237;DHT22;50101;49.438;11.098;2022-11-21T15:11:23;18.70;66.70
38237;DHT22;50101;49.438;11.098;2022-11-21T15:13:57;18.70;67.60
38237;DHT22;50101;49.438;11.098;2022-11-21T15:16:42;18.70;66.80
38237;DHT22;50101;49.438;11.098;2022-11-21T15:19:10;18.70;66.40
38237;DHT22;50101;49.438;11.098;2022-11-21T15:21:43;18.70;66.90
38237;DHT22;50101;49.438;11.098;2022-11-21T15:26:54;18.70;67.10
38237;DHT22;50101;49.438;11.098;2022-11-21T15:29:21;18.70;67.00
38237;DHT22;50101;49.438;11.098;2022-11-21T15:32:09;18.70;66.90
38237;DHT22;50101;49.438;11.098;2022-11-21T15:34:56;18.70;67.30
38237;DHT22;50101;49.438;11.098;2022-11-21T15:37:22;18.80;67.30
38237;DHT22;50101;49.438;11.098;2022-11-21T15:39:51;18.80;67.30
38237;DHT22;50101;49.438;11.098;2022-11-21T15:45:20;18.80;67.50
38237;DHT22;50101;49.438;11.098;2022-11-21T15:47:47;18.80;67.80
38237;DHT22;50101;49.438;11.098;2022-11-21T15:50:14;18.80;68.60
38237;DHT22;50101;49.438;11.098;2022-11-21T15:52:49;18.80;67.80
38237;DHT22;50101;49.438;11.098;2022-11-21T15:55:21;18.80;67.80
38237;DHT22;50101;49.438;11.098;2022-11-21T15:57:48;18.80;68.60
38237;DHT22;50101;49.438;11.098;2022-11-21T16:00:15;18.70;67.80
38237;DHT22;50101;49.438;11.098;2022-11-21T16:02:42;18.80;67.90
38237;DHT22;50101;49.438;11.098;2022-11-21T16:05:11;18.80;67.90
38237;DHT22;50101;49.438;11.098;2022-11-21T16:07:40;18.80;66.60
38237;DHT22;50101;49.438;11.098;2022-11-21T16:10:07;18.80;65.50
38237;DHT22;50101;49.438;11.098;2022-11-21T16:12:47;18.80;65.20
38237;DHT22;50101;49.438;11.098;2022-11-21T16:15:13;18.80;64.90
38237;DHT22;50101;49.438;11.098;2022-11-21T16:17:40;18.80;64.80
38237;DHT22;50101;49.438;11.098;2022-11-21T16:20:07;18.80;64.80
38237;DHT22;50101;49.438;11.098;2022-11-21T16:22:34;18.80;64.70
38237;DHT22;50101;49.438;11.098;2022-11-21T16:25:01;18.80;64.60
38237;DHT22;50101;49.438;11.098;2022-11-21T16:27:27;18.70;62.90
38237;DHT22;50101;49.438;11.098;2022-11-21T16:29:54;18.70;64.60
38237;DHT22;50101;49.438;11.098;2022-11-21T16:32:24;18.70;64.20
38237;DHT22;50101;49.438;11.098;2022-11-21T16:34:50;18.70;64.10
38237;DHT22;50101;49.438;11.098;2022-11-21T16:37:18;18.70;63.00
38237;DHT22;50101;49.438;11.098;2022-11-21T16:39:45;18.80;62.70
38237;DHT22;50101;49.438;11.098;2022-11-21T16:42:18;18.80;62.40
38237;DHT22;50101;49.438;11.098;2022-11-21T16:44:45;18.80;62.20
38237;DHT22;50101;49.438;11.098;2022-11-21T16:47:12;18.80;62.30
38237;DHT22;50101;49.438;11.098;2022-11-21T16:49:39;18.80;61.80
38237;DHT22;50101;49.438;11.098;2022-11-21T16:52:10;18.80;62.40
38237;DHT22;50101;49.438;11.098;2022-11-21T16:54:37;18.80;62.80
38237;DHT22;50101;49.438;11.098;2022-11-21T16:57:03;18.80;63.00
38237;DHT22;50101;49.438;11.098;2022-11-21T16:59:31;18.90;62.50
38237;DHT22;50101;49.438;11.098;2022-11-21T17:01:58;18.90;63.30
38237;DHT22;50101;49.438;11.098;2022-11-21T17:04:24;18.80;63.60
38237;DHT22;50101;49.438;11.098;2022-11-21T17:06:51;18.80;63.90
38237;DHT22;50101;49.438;11.098;2022-11-21T17:09:18;18.80;63.90
38237;DHT22;50101;49.438;11.098;2022-11-21T17:11:45;18.80;64.10
38237;DHT22;50101;49.438;11.098;2022-11-21T17:14:12;18.80;64.10
38237;DHT22;50101;49.438;11.098;2022-11-21T17:16:39;18.80;64.20
38237;DHT22;50101;49.438;11.098;2022-11-21T17:19:10;18.80;64.50
38237;DHT22;50101;49.438;11.098;2022-11-21T17:21:36;18.80;64.50
38237;DHT22;50101;49.438;11.098;2022-11-21T17:24:03;18.80;64.50
38237;DHT22;50101;49.438;11.098;2022-11-21T17:26:30;18.80;65.30
38237;DHT22;50101;49.438;11.098;2022-11-21T17:28:58;18.90;64.40
38237;DHT22;50101;49.438;11.098;2022-11-21T17:31:26;18.90;64.60
38237;DHT22;50101;49.438;11.098;2022-11-21T17:33:55;18.90;64.40
38237;DHT22;50101;49.438;11.098;2022-11-21T17:36:24;18.90;64.20